Time;durP1;ratioP1;P1;durP2;ratioP2;P2;SDS_P1;SDS_P2;PMS_P1;PMS_P2;Temp;Humidity;BMP_temperature;BMP_pressure;BME280_temperature;BME280_humidity;BME280_pressure;Samples;Min_cycle;Max_cycle;Signal;HPM_P1;HPM_P2
2022/06/14 00:03:06;;;;;;;5.03;4.50;;;18.00;85.30;;;;;;10408789;28;20753;-78
2022/06/14 00:08:10;;;;;;;5.90;4.20;;;17.90;85.70;;;;;;10388971;28;20268;-77
2022/06/14 00:13:13;;;;;;;5.63;5.10;;;17.90;85.90;;;;;;10398491;28;20186;-77
2022/06/14 00:18:16;;;;;;;5.63;5.10;;;17.90;86.10;;;;;;10408301;28;20230;-79
2022/06/14 00:23:21;;;;;;;6.93;4.63;;;17.80;85.30;;;;;;10409609;28;20708;-77
2022/06/14 00:28:26;;;;;;;7.70;5.30;;;17.80;86.10;;;;;;10404522;28;20221;-78
2022/06/14 00:33:28;;;;;;;5.53;4.63;;;17.80;85.80;;;;;;10382982;28;20212;-76
2022/06/14 00:38:33;;;;;;;6.07;4.43;;;17.80;85.30;;;;;;10408394;28;20632;-77
2022/06/14 00:43:35;;;;;;;5.93;4.83;;;17.70;86.20;;;;;;10409521;28;20245;-76
2022/06/14 00:48:38;;;;;;;8.17;4.70;;;17.70;86.20;;;;;;10402274;28;20222;-77
2022/06/14 00:53:46;;;;;;;4.90;4.37;;;17.60;85.80;;;;;;10397340;28;20685;-77
2022/06/14 00:58:53;;;;;;;5.50;4.50;;;17.60;87.00;;;;;;10406321;28;20432;-78
2022/06/14 01:03:58;;;;;;;4.83;4.43;;;17.60;86.30;;;;;;10408022;28;20236;-79
2022/06/14 01:09:07;;;;;;;5.37;4.43;;;17.60;88.60;;;;;;10414084;28;20583;-79
2022/06/14 01:14:14;;;;;;;5.33;4.83;;;17.50;87.70;;;;;;10410456;28;20204;-79
2022/06/14 01:19:21;;;;;;;8.17;5.33;;;17.50;88.50;;;;;;10416089;28;20225;-79
2022/06/14 01:24:25;;;;;;;6.90;4.70;;;17.40;88.30;;;;;;10402527;28;20249;-78
2022/06/14 01:29:29;;;;;;;5.90;4.47;;;17.40;87.80;;;;;;10418747;28;20265;-78
2022/06/14 01:34:39;;;;;;;5.60;4.63;;;17.30;86.90;;;;;;10424736;28;20193;-78
2022/06/14 01:39:43;;;;;;;5.70;4.83;;;17.30;87.60;;;;;;10417290;28;20215;-78
2022/06/14 01:44:51;;;;;;;5.50;5.00;;;17.20;88.80;;;;;;10418267;28;20305;-79
2022/06/14 01:55:37;;;;;;;7.40;5.90;;;17.10;88.50;;;;;;10417843;28;21728;-79
2022/06/14 02:00:47;;;;;;;7.40;5.30;;;17.10;88.80;;;;;;10414941;28;20287;-79
2022/06/14 02:05:55;;;;;;;6.13;5.23;;;17.10;89.00;;;;;;10411732;28;20232;-77
2022/06/14 02:11:05;;;;;;;5.50;4.70;;;17.10;88.70;;;;;;10410551;28;20249;-77
2022/06/14 02:16:13;;;;;;;6.20;5.50;;;17.00;88.60;;;;;;10412654;28;20281;-77
2022/06/14 02:21:20;;;;;;;4.80;4.40;;;17.00;87.70;;;;;;10412722;28;20233;-77
2022/06/14 02:26:29;;;;;;;6.70;4.90;;;17.00;89.80;;;;;;10408327;28;20252;-76
2022/06/14 02:31:36;;;;;;;5.27;4.50;;;17.00;90.30;;;;;;10406540;28;20680;-77
2022/06/14 02:36:42;;;;;;;7.70;5.63;;;17.00;89.10;;;;;;10409416;28;20229;-77
2022/06/14 02:41:56;;;;;;;6.00;5.50;;;17.00;89.40;;;;;;10411913;28;20729;-76
2022/06/14 02:47:05;;;;;;;6.47;5.83;;;17.00;89.90;;;;;;10413043;28;20659;-77
2022/06/14 02:52:13;;;;;;;5.73;5.20;;;16.90;90.30;;;;;;10407715;28;20202;-76
2022/06/14 02:57:22;;;;;;;5.43;4.83;;;16.80;90.00;;;;;;10408660;28;20260;-77
2022/06/14 03:02:31;;;;;;;6.03;5.10;;;16.80;89.30;;;;;;10398677;28;20233;-76
2022/06/14 03:07:38;;;;;;;6.47;5.33;;;16.80;90.70;;;;;;10410285;28;20709;-77
2022/06/14 03:12:47;;;;;;;6.43;5.73;;;16.70;90.10;;;;;;10412649;28;20256;-77
2022/06/14 03:18:01;;;;;;;8.73;5.73;;;16.70;90.80;;;;;;10407471;28;20256;-77
2022/06/14 03:23:15;;;;;;;6.20;5.70;;;16.70;90.50;;;;;;10413396;28;20690;-78
2022/06/14 03:28:23;;;;;;;5.60;5.10;;;16.60;90.90;;;;;;10414388;28;20660;-79
2022/06/14 03:33:34;;;;;;;6.30;5.13;;;16.60;90.90;;;;;;10416370;28;20201;-79
2022/06/14 03:38:41;;;;;;;7.27;5.30;;;16.50;90.60;;;;;;10416200;28;20240;-79
2022/06/14 03:43:45;;;;;;;6.53;5.90;;;16.50;90.50;;;;;;10413038;28;20228;-78
2022/06/14 03:48:51;;;;;;;5.70;5.07;;;16.40;90.80;;;;;;10413297;28;20232;-79
2022/06/14 03:54:24;;;;;;;5.57;5.00;;;16.40;90.90;;;;;;10411307;28;20624;-77
2022/06/14 03:59:54;;;;;;;6.80;6.20;;;16.40;91.10;;;;;;10405335;28;20229;-77
2022/06/14 04:05:03;;;;;;;6.00;5.40;;;16.40;91.10;;;;;;10409100;28;20226;-76
2022/06/14 04:10:16;;;;;;;7.40;6.37;;;16.40;91.80;;;;;;10398165;28;20230;-77
2022/06/14 04:15:32;;;;;;;7.70;5.80;;;16.40;91.50;;;;;;10400715;28;20201;-76
2022/06/14 04:20:41;;;;;;;7.20;5.50;;;16.50;91.30;;;;;;10407614;28;20229;-77
2022/06/14 04:25:51;;;;;;;5.83;4.90;;;16.50;92.00;;;;;;10408743;28;20316;-76
2022/06/14 04:31:08;;;;;;;6.90;6.03;;;16.60;92.60;;;;;;10397982;28;20217;-77
2022/06/14 04:36:13;;;;;;;5.97;5.50;;;16.60;92.20;;;;;;10404602;28;20200;-77
2022/06/14 04:41:21;;;;;;;6.33;5.77;;;16.60;93.10;;;;;;10405306;28;20658;-78
2022/06/14 04:46:30;;;;;;;6.47;5.87;;;16.70;92.50;;;;;;10405699;28;20233;-77
2022/06/14 04:51:37;;;;;;;11.43;6.20;;;16.70;92.90;;;;;;10406889;28;20208;-78
2022/06/14 04:56:45;;;;;;;6.87;6.27;;;16.80;93.00;;;;;;10396859;28;20308;-76
2022/06/14 05:01:53;;;;;;;8.17;6.27;;;16.80;93.00;;;;;;10402425;28;20206;-77
2022/06/14 05:06:59;;;;;;;6.87;6.27;;;16.80;92.90;;;;;;10404582;28;20232;-77
2022/06/14 05:12:08;;;;;;;7.07;6.37;;;16.80;92.50;;;;;;10407144;28;20225;-76
2022/06/14 05:17:16;;;;;;;7.50;6.60;;;16.90;93.10;;;;;;10401793;28;20304;-78
2022/06/14 05:22:24;;;;;;;9.63;7.53;;;16.90;93.30;;;;;;10395236;28;20237;-77
2022/06/14 05:27:46;;;;;;;11.77;7.93;;;17.00;93.00;;;;;;10410514;28;20225;-79
2022/06/14 05:32:55;;;;;;;9.70;8.70;;;17.10;92.90;;;;;;10416517;28;20202;-79
2022/06/14 05:38:09;;;;;;;11.97;8.57;;;17.10;93.30;;;;;;10403069;28;20230;-79
2022/06/14 05:43:15;;;;;;;8.80;6.90;;;17.10;93.30;;;;;;10411500;28;20214;-79
2022/06/14 05:48:25;;;;;;;8.93;6.97;;;17.20;93.30;;;;;;10413496;28;20219;-79
2022/06/14 05:53:36;;;;;;;7.57;6.90;;;17.30;93.50;;;;;;10400345;28;20202;-79
2022/06/14 05:58:43;;;;;;;9.23;6.77;;;17.40;93.40;;;;;;10396949;28;20309;-78
2022/06/14 06:03:52;;;;;;;12.30;7.77;;;17.50;93.40;;;;;;10422285;28;20210;-79
2022/06/14 06:08:59;;;;;;;8.77;7.97;;;17.60;93.30;;;;;;10399561;28;20698;-78
2022/06/14 06:14:06;;;;;;;8.67;7.93;;;17.70;93.00;;;;;;10399729;28;20583;-80
2022/06/14 06:19:14;;;;;;;8.50;7.50;;;17.80;93.50;;;;;;10437629;22;20221;-81
2022/06/14 06:24:19;;;;;;;7.13;6.43;;;17.90;93.40;;;;;;10421683;28;20277;-80
2022/06/14 06:29:25;;;;;;;7.73;6.90;;;18.10;93.20;;;;;;10439222;28;20225;-81
2022/06/14 06:34:28;;;;;;;7.50;6.80;;;18.20;92.40;;;;;;10436502;28;20799;-80
2022/06/14 06:39:49;;;;;;;8.27;6.80;;;18.30;93.20;;;;;;10416707;28;20229;-81
2022/06/14 06:44:56;;;;;;;10.60;6.50;;;18.50;93.10;;;;;;10436893;28;20229;-81
2022/06/14 06:50:16;;;;;;;6.97;6.37;;;18.80;92.70;;;;;;10427348;28;20245;-81
2022/06/14 06:55:30;;;;;;;6.53;5.90;;;19.10;91.40;;;;;;10395261;28;20170;-81
2022/06/14 07:00:35;;;;;;;6.87;6.23;;;19.40;91.30;;;;;;10393888;28;20219;-81
2022/06/14 07:05:40;;;;;;;7.13;6.47;;;19.70;90.50;;;;;;10369283;28;20219;-81
2022/06/14 07:10:46;;;;;;;7.23;6.53;;;20.00;88.90;;;;;;10420055;28;20229;-81
2022/06/14 07:15:53;;;;;;;6.30;4.97;;;20.30;83.60;;;;;;10431130;28;20190;-81
2022/06/14 07:21:04;;;;;;;7.43;5.90;;;20.60;82.20;;;;;;10419692;28;20241;-79
2022/06/14 07:26:14;;;;;;;6.10;5.53;;;20.90;82.30;;;;;;10397198;28;20214;-81
2022/06/14 07:31:23;;;;;;;7.87;6.20;;;21.20;82.90;;;;;;10415195;28;20240;-80
2022/06/14 07:36:38;;;;;;;6.20;4.80;;;21.50;81.20;;;;;;10395128;28;20217;-81
2022/06/14 07:41:48;;;;;;;6.20;5.67;;;21.80;80.10;;;;;;10398995;28;20203;-81
2022/06/14 07:47:02;;;;;;;6.27;5.37;;;22.20;77.50;;;;;;10379440;28;20213;-80
2022/06/14 07:52:13;;;;;;;5.70;4.90;;;22.70;77.00;;;;;;10373650;28;20771;-82
2022/06/14 07:57:20;;;;;;;6.03;5.33;;;23.40;75.00;;;;;;10380951;28;20691;-80
2022/06/14 08:02:33;;;;;;;7.43;5.53;;;24.10;71.60;;;;;;10394831;28;20732;-82
2022/06/14 08:07:37;;;;;;;5.57;5.07;;;24.80;70.00;;;;;;10375280;28;20270;-82
2022/06/14 08:12:44;;;;;;;5.63;4.77;;;25.40;67.70;;;;;;10385987;28;20202;-82
2022/06/14 08:17:52;;;;;;;5.63;5.10;;;25.90;67.50;;;;;;10395381;28;20217;-82
2022/06/14 08:22:58;;;;;;;5.20;4.90;;;26.40;65.90;;;;;;10393401;28;20225;-82
2022/06/14 08:28:08;;;;;;;5.53;4.60;;;26.90;64.90;;;;;;10394792;28;20312;-82
2022/06/14 08:33:19;;;;;;;4.20;3.97;;;27.30;63.70;;;;;;10400210;28;20206;-83
2022/06/14 08:38:29;;;;;;;8.10;5.80;;;27.70;61.50;;;;;;10399526;28;20268;-82
2022/06/14 08:43:38;;;;;;;5.80;5.07;;;27.90;60.60;;;;;;10401555;28;20201;-82
2022/06/14 08:48:43;;;;;;;8.60;5.90;;;28.00;59.10;;;;;;10402397;28;20698;-83
2022/06/14 08:54:18;;;;;;;5.57;5.07;;;28.20;58.90;;;;;;10408677;28;20206;-83
2022/06/14 08:59:56;;;;;;;4.03;3.63;;;28.50;58.20;;;;;;10387961;28;20226;-83
2022/06/14 09:05:35;;;;;;;7.60;4.30;;;28.80;58.40;;;;;;10404408;28;20232;-83
2022/06/14 09:10:56;;;;;;;6.33;4.30;;;29.10;56.60;;;;;;10403211;28;20248;-83
2022/06/14 09:16:32;;;;;;;7.00;5.17;;;29.50;56.30;;;;;;10408736;28;20265;-82
2022/06/14 09:21:52;;;;;;;6.83;4.80;;;29.70;54.00;;;;;;10397718;28;20315;-83
2022/06/14 09:27:13;;;;;;;4.53;3.93;;;30.00;54.70;;;;;;10410221;28;20209;-82
2022/06/14 09:38:23;;;;;;;5.43;4.10;;;30.90;52.20;;;;;;10409574;28;20634;-82
2022/06/14 09:43:47;;;;;;;3.80;3.50;;;31.70;50.80;;;;;;10403397;28;20201;-82
2022/06/14 09:49:22;;;;;;;4.40;4.00;;;32.60;49.40;;;;;;10396466;28;20701;-82
2022/06/14 09:54:58;;;;;;;4.17;3.87;;;33.80;48.20;;;;;;10412618;28;20221;-83
2022/06/14 10:00:36;;;;;;;3.87;3.27;;;35.20;44.20;;;;;;10407128;28;20320;-82
2022/06/14 10:06:01;;;;;;;4.33;3.53;;;35.60;42.50;;;;;;10402974;28;20247;-82
2022/06/14 10:11:15;;;;;;;5.10;3.67;;;35.00;43.60;;;;;;10399392;28;20245;-82
2022/06/14 10:16:35;;;;;;;6.40;3.73;;;34.90;43.30;;;;;;10398353;28;20217;-82
2022/06/14 10:21:42;;;;;;;5.30;4.00;;;35.10;43.60;;;;;;10415680;28;20209;-82
2022/06/14 10:32:52;;;;;;;4.80;4.30;;;32.50;46.00;;;;;;10410830;28;20682;-82
2022/06/14 10:38:26;;;;;;;4.60;3.90;;;31.00;46.60;;;;;;10389687;28;20702;-81
2022/06/14 10:43:37;;;;;;;4.90;4.37;;;29.80;48.40;;;;;;10422936;28;20207;-82
2022/06/14 10:49:21;;;;;;;6.50;4.70;;;28.90;50.90;;;;;;10407499;28;20222;-82
2022/06/14 10:54:32;;;;;;;5.50;4.77;;;28.10;52.80;;;;;;10404693;28;20245;-82
2022/06/14 11:00:05;;;;;;;5.67;4.70;;;27.40;53.00;;;;;;10417119;28;20232;-82
2022/06/14 11:05:18;;;;;;;4.00;3.70;;;26.90;51.50;;;;;;10413834;28;20297;-82
2022/06/14 11:10:37;;;;;;;5.90;4.57;;;26.40;53.80;;;;;;10417216;28;20221;-82
2022/06/14 11:15:45;;;;;;;4.57;4.17;;;26.00;53.60;;;;;;10418630;28;20222;-82
2022/06/14 11:20:55;;;;;;;5.57;4.47;;;25.60;56.80;;;;;;10399968;28;20772;-82
2022/06/14 11:26:06;;;;;;;4.53;4.10;;;25.40;55.30;;;;;;10401759;28;20714;-82
2022/06/14 11:31:19;;;;;;;4.60;4.20;;;25.20;56.10;;;;;;10415157;28;20231;-82
2022/06/14 11:36:39;;;;;;;4.17;3.90;;;25.00;56.80;;;;;;10416166;28;20321;-82
2022/06/14 11:41:46;;;;;;;4.47;4.07;;;24.90;55.50;;;;;;10419343;28;20575;-82
2022/06/14 11:46:58;;;;;;;3.83;3.63;;;24.80;54.80;;;;;;10395721;28;20198;-81
2022/06/14 11:52:10;;;;;;;4.07;3.47;;;24.60;59.10;;;;;;10383636;28;20231;-82
2022/06/14 11:57:26;;;;;;;4.70;4.10;;;24.50;56.50;;;;;;10379605;28;20241;-83
2022/06/14 12:02:40;;;;;;;4.20;3.90;;;24.40;57.60;;;;;;10401667;28;20265;-82
2022/06/14 12:07:46;;;;;;;3.87;3.03;;;24.40;55.20;;;;;;10394101;28;20230;-81
2022/06/14 12:12:59;;;;;;;4.40;4.00;;;24.40;56.50;;;;;;10424933;28;20202;-82
2022/06/14 12:18:07;;;;;;;5.53;4.33;;;24.40;55.80;;;;;;10425735;22;20230;-79
2022/06/14 12:23:15;;;;;;;4.43;4.13;;;24.50;56.70;;;;;;10415115;28;20226;-80
2022/06/14 12:28:25;;;;;;;4.00;3.70;;;24.50;55.80;;;;;;10411692;28;20624;-77
2022/06/14 12:33:32;;;;;;;4.10;3.80;;;24.60;55.60;;;;;;10338118;28;20311;-80
2022/06/14 12:38:39;;;;;;;4.57;3.40;;;24.60;55.10;;;;;;10375979;28;20235;-79
2022/06/14 12:43:53;;;;;;;4.00;3.70;;;24.60;55.90;;;;;;10379052;28;20198;-79
2022/06/14 12:49:00;;;;;;;5.17;3.93;;;24.70;56.10;;;;;;10373133;28;20663;-79
2022/06/14 12:54:15;;;;;;;5.67;4.40;;;24.80;55.50;;;;;;10378431;28;20198;-78
2022/06/14 12:59:26;;;;;;;5.00;3.70;;;24.80;54.90;;;;;;10384997;28;20241;-79
2022/06/14 13:04:34;;;;;;;3.60;3.40;;;24.70;53.20;;;;;;10385526;28;20203;-79
2022/06/14 13:09:52;;;;;;;3.23;2.93;;;24.70;54.20;;;;;;10387593;28;20233;-79
2022/06/14 13:15:01;;;;;;;3.53;2.97;;;24.70;53.30;;;;;;10391271;28;20210;-79
2022/06/14 13:20:17;;;;;;;4.10;3.80;;;24.70;54.90;;;;;;10387950;28;20230;-78
2022/06/14 13:25:41;;;;;;;6.37;4.70;;;24.60;54.80;;;;;;10362537;28;20207;-78
2022/06/14 13:30:53;;;;;;;4.27;3.93;;;24.60;57.20;;;;;;10361938;28;20703;-78
2022/06/14 13:36:05;;;;;;;4.13;3.83;;;24.60;56.00;;;;;;10374152;28;20209;-79
2022/06/14 13:41:14;;;;;;;4.03;3.73;;;24.60;56.80;;;;;;10362307;28;20223;-79
2022/06/14 13:46:27;;;;;;;4.17;3.87;;;24.60;55.20;;;;;;10374820;28;21052;-78
2022/06/14 13:51:36;;;;;;;4.30;3.47;;;24.60;57.40;;;;;;10378466;28;20219;-79
2022/06/14 13:56:46;;;;;;;3.40;3.20;;;24.60;56.20;;;;;;10364237;28;20195;-79
2022/06/14 14:01:58;;;;;;;3.20;3.00;;;24.70;54.60;;;;;;10377493;28;20274;-79
2022/06/14 14:07:09;;;;;;;3.77;3.47;;;24.70;56.20;;;;;;10355093;28;20222;-78
2022/06/14 14:12:18;;;;;;;4.17;3.73;;;24.70;57.30;;;;;;10350528;28;20692;-78
2022/06/14 14:17:31;;;;;;;4.83;4.43;;;24.70;55.20;;;;;;10338504;28;20200;-78
2022/06/14 14:22:38;;;;;;;3.90;3.60;;;24.70;53.80;;;;;;10352621;28;20313;-79
2022/06/14 14:27:49;;;;;;;5.03;3.97;;;24.70;55.50;;;;;;10354625;28;20336;-79
2022/06/14 14:32:56;;;;;;;3.40;3.10;;;24.70;55.20;;;;;;10353170;28;20674;-78
2022/06/14 14:38:05;;;;;;;3.97;3.60;;;24.70;54.70;;;;;;10366387;28;20249;-79
2022/06/14 14:43:12;;;;;;;3.30;2.97;;;24.60;54.10;;;;;;10368683;28;20202;-78
2022/06/14 14:48:25;;;;;;;3.00;2.80;;;24.60;54.20;;;;;;10356909;28;20225;-79
2022/06/14 14:53:34;;;;;;;4.03;3.33;;;24.60;53.10;;;;;;10344865;28;20505;-78
2022/06/14 14:58:42;;;;;;;3.63;3.33;;;24.60;55.40;;;;;;10345112;28;20708;-78
2022/06/14 15:09:24;;;;;;;3.23;3.00;;;24.50;57.50;;;;;;10346769;28;20223;-78
2022/06/14 15:14:26;;;;;;;3.17;2.97;;;24.50;54.00;;;;;;10350006;28;20206;-79
2022/06/14 15:24:52;;;;;;;4.07;3.67;;;24.50;53.50;;;;;;10340759;28;20292;-79
2022/06/14 15:29:54;;;;;;;3.70;2.90;;;24.60;52.30;;;;;;10349900;28;20223;-78
2022/06/14 15:35:00;;;;;;;4.37;2.30;;;24.70;51.40;;;;;;10354838;28;20218;-78
2022/06/14 15:40:21;;;;;;;2.77;2.60;;;24.70;55.00;;;;;;10345587;28;20563;-78
2022/06/14 15:45:28;;;;;;;4.10;3.30;;;24.60;52.30;;;;;;10334497;28;20683;-78
2022/06/14 15:50:34;;;;;;;3.53;3.33;;;24.60;53.00;;;;;;10350797;28;20219;-78
2022/06/14 15:55:38;;;;;;;3.87;3.47;;;24.70;53.20;;;;;;10345339;28;20202;-78
2022/06/14 16:00:51;;;;;;;2.80;2.60;;;24.70;54.60;;;;;;10355297;28;20317;-77
2022/06/14 16:05:58;;;;;;;2.93;2.73;;;24.70;54.40;;;;;;10348714;28;20215;-78
2022/06/14 16:11:04;;;;;;;3.63;3.27;;;24.70;54.30;;;;;;10348823;28;20322;-78
2022/06/14 16:16:24;;;;;;;3.20;2.90;;;24.70;51.70;;;;;;10353032;28;20825;-78
2022/06/14 16:21:32;;;;;;;3.37;3.07;;;24.70;51.20;;;;;;10355881;28;20751;-79
2022/06/14 16:26:45;;;;;;;3.07;2.87;;;24.70;54.00;;;;;;10355372;28;20218;-78
2022/06/14 16:31:53;;;;;;;3.10;2.90;;;24.70;51.90;;;;;;10350048;28;20664;-78
2022/06/14 16:37:05;;;;;;;3.63;3.33;;;24.60;55.40;;;;;;10344164;28;20217;-79
2022/06/14 16:42:20;;;;;;;3.30;3.10;;;24.50;56.50;;;;;;10352570;28;20689;-79
2022/06/14 16:47:28;;;;;;;4.87;3.30;;;24.40;57.80;;;;;;10352121;28;20522;-79
2022/06/14 16:52:41;;;;;;;3.20;3.00;;;24.40;59.40;;;;;;10356614;28;20650;-79
2022/06/14 16:57:53;;;;;;;4.80;3.00;;;24.30;58.80;;;;;;10356048;28;20214;-79
2022/06/14 17:03:13;;;;;;;3.10;2.90;;;24.20;55.60;;;;;;10349043;28;20535;-79
2022/06/14 17:08:29;;;;;;;3.00;2.80;;;24.30;55.90;;;;;;10358269;28;20222;-79
2022/06/14 17:13:38;;;;;;;3.30;3.10;;;24.20;58.00;;;;;;10361958;28;20202;-79
2022/06/14 17:18:44;;;;;;;3.10;2.90;;;24.20;60.70;;;;;;10348458;28;20246;-79
2022/06/14 17:23:54;;;;;;;4.07;3.30;;;24.10;59.10;;;;;;10353830;28;20329;-79
2022/06/14 17:34:29;;;;;;;3.90;3.30;;;24.00;59.50;;;;;;10354370;28;20198;-78
2022/06/14 17:39:40;;;;;;;3.83;3.53;;;24.00;59.20;;;;;;10357318;28;20564;-78
2022/06/14 17:44:47;;;;;;;4.00;3.70;;;24.00;62.90;;;;;;10346986;28;20722;-80
2022/06/14 17:50:01;;;;;;;3.80;3.50;;;24.00;61.50;;;;;;10356573;28;20310;-78
2022/06/14 17:55:16;;;;;;;4.50;3.70;;;24.00;61.40;;;;;;10357278;28;20225;-78
2022/06/14 18:00:25;;;;;;;4.00;3.63;;;23.90;63.10;;;;;;10361428;28;20277;-80
2022/06/14 18:05:45;;;;;;;5.93;3.60;;;23.90;63.80;;;;;;10352329;28;20215;-78
2022/06/14 18:10:51;;;;;;;4.00;3.60;;;23.90;64.60;;;;;;10350288;28;20218;-79
2022/06/14 18:16:00;;;;;;;3.67;3.20;;;23.90;65.60;;;;;;10345230;28;20906;-79
2022/06/14 18:21:07;;;;;;;3.80;3.50;;;23.80;66.00;;;;;;10412486;23;20226;-82
2022/06/14 18:26:39;;;;;;;3.27;3.07;;;23.80;66.70;;;;;;10376635;28;20422;-81
2022/06/14 18:31:49;;;;;;;3.40;3.10;;;23.70;67.10;;;;;;10356296;28;20787;-80
2022/06/14 18:37:05;;;;;;;3.80;3.50;;;23.60;68.30;;;;;;10380217;28;20210;-81
2022/06/14 18:42:56;;;;;;;6.70;3.83;;;23.50;67.80;;;;;;10403674;28;20221;-80
2022/06/14 18:48:04;;;;;;;5.27;3.90;;;23.40;67.70;;;;;;10399644;28;20236;-80
2022/06/14 18:53:23;;;;;;;3.83;3.37;;;23.30;68.30;;;;;;10412701;28;20212;-80
2022/06/14 18:58:30;;;;;;;4.53;4.23;;;23.30;69.20;;;;;;10403206;28;20218;-81
2022/06/14 19:03:41;;;;;;;3.70;3.40;;;23.20;68.50;;;;;;10407567;28;20270;-79
2022/06/14 19:09:00;;;;;;;4.60;3.70;;;23.10;68.70;;;;;;10417329;28;20249;-82
2022/06/14 19:14:32;;;;;;;4.87;4.37;;;23.00;69.30;;;;;;10406410;28;20229;-84
2022/06/14 19:19:55;;;;;;;6.00;3.80;;;22.90;70.20;;;;;;10396828;28;20260;-80
2022/06/14 19:25:13;;;;;;;4.63;4.23;;;22.80;69.80;;;;;;10402641;28;20202;-81
2022/06/14 19:30:18;;;;;;;4.03;3.70;;;22.70;72.00;;;;;;10389588;28;20251;-81
2022/06/14 19:35:27;;;;;;;16.53;14.97;;;22.70;73.80;;;;;;10411042;28;20293;-82
2022/06/14 19:40:35;;;;;;;5.87;5.47;;;22.60;75.40;;;;;;10413234;28;20826;-80
2022/06/14 19:45:42;;;;;;;9.00;8.10;;;22.50;75.00;;;;;;10382755;28;20320;-82
2022/06/14 19:50:50;;;;;;;4.40;4.10;;;22.50;74.60;;;;;;10366258;28;20214;-80
2022/06/14 19:55:55;;;;;;;4.60;4.13;;;22.40;74.30;;;;;;10406220;28;20551;-81
2022/06/14 20:01:02;;;;;;;4.00;3.70;;;22.30;74.00;;;;;;10385054;28;20230;-80
2022/06/14 20:06:23;;;;;;;4.40;4.10;;;22.30;74.80;;;;;;10389619;28;20225;-81
2022/06/14 20:11:29;;;;;;;5.33;4.93;;;22.30;75.60;;;;;;10397298;28;20268;-81
2022/06/14 20:16:38;;;;;;;8.60;6.90;;;22.20;74.40;;;;;;10391663;28;20233;-81
2022/06/14 20:21:45;;;;;;;7.67;6.97;;;22.20;73.90;;;;;;10383064;28;20733;-81
2022/06/14 20:26:49;;;;;;;5.30;3.80;;;22.10;75.10;;;;;;10401738;28;20230;-81
2022/06/14 20:31:54;;;;;;;4.67;3.83;;;22.00;73.00;;;;;;10404739;28;20714;-81
2022/06/14 20:37:04;;;;;;;4.47;4.17;;;22.00;72.70;;;;;;10391193;28;20276;-81
2022/06/14 20:42:13;;;;;;;3.63;3.27;;;22.00;71.70;;;;;;10366041;28;20308;-82
2022/06/14 20:47:20;;;;;;;3.83;3.60;;;21.90;72.50;;;;;;10394782;28;20319;-82
2022/06/14 20:52:25;;;;;;;3.43;3.20;;;21.80;71.30;;;;;;10386693;28;20226;-82
2022/06/14 20:57:30;;;;;;;4.93;4.43;;;21.80;69.90;;;;;;10365777;28;20309;-81
2022/06/14 21:02:33;;;;;;;3.73;3.03;;;21.70;70.00;;;;;;10373702;28;20304;-82
2022/06/14 21:07:37;;;;;;;3.63;3.33;;;21.60;69.80;;;;;;10372914;28;20210;-80
2022/06/14 21:12:40;;;;;;;4.43;3.73;;;21.60;69.30;;;;;;10378775;28;20270;-82
2022/06/14 21:17:43;;;;;;;4.17;3.40;;;21.50;69.40;;;;;;10380470;28;20702;-81
2022/06/14 21:22:51;;;;;;;4.00;3.60;;;21.50;69.00;;;;;;10368157;28;20202;-82
2022/06/14 21:27:55;;;;;;;3.80;3.50;;;21.40;68.50;;;;;;10362572;28;20231;-80
2022/06/14 21:33:08;;;;;;;4.67;3.50;;;21.40;68.70;;;;;;10398699;28;20197;-80
2022/06/14 21:38:14;;;;;;;4.00;3.70;;;21.40;68.50;;;;;;10402690;28;20238;-81
2022/06/14 21:43:21;;;;;;;3.77;3.27;;;21.30;69.60;;;;;;10402858;28;20197;-82
2022/06/14 21:48:26;;;;;;;3.80;3.37;;;21.30;68.90;;;;;;10408106;28;20702;-82
2022/06/14 21:53:32;;;;;;;3.50;3.27;;;21.30;68.90;;;;;;10401922;28;20203;-80
2022/06/14 21:58:37;;;;;;;3.63;3.37;;;21.20;70.00;;;;;;10392406;28;20214;-81
2022/06/14 22:03:52;;;;;;;3.80;3.50;;;21.20;70.30;;;;;;10396211;28;20210;-81
2022/06/14 22:08:58;;;;;;;3.40;3.20;;;21.10;71.40;;;;;;10407256;28;20291;-80
2022/06/14 22:14:00;;;;;;;3.67;3.10;;;21.00;70.20;;;;;;10411353;28;20206;-81
2022/06/14 22:19:02;;;;;;;4.27;3.33;;;21.00;71.80;;;;;;10402943;28;20668;-81
2022/06/14 22:29:28;;;;;;;4.10;3.80;;;20.90;71.30;;;;;;10402235;28;20237;-81
2022/06/14 22:34:36;;;;;;;3.87;3.57;;;20.90;71.10;;;;;;10411771;28;20205;-82
2022/06/14 22:39:40;;;;;;;3.83;3.50;;;20.80;71.80;;;;;;10396511;28;20720;-83
2022/06/14 22:44:42;;;;;;;4.00;3.70;;;20.70;70.90;;;;;;10406559;28;20201;-82
2022/06/14 22:49:44;;;;;;;4.17;3.60;;;20.60;72.20;;;;;;10407081;28;20233;-82
2022/06/14 22:54:49;;;;;;;3.73;3.50;;;20.50;73.50;;;;;;10398458;28;20704;-82
2022/06/14 22:59:52;;;;;;;3.83;3.53;;;20.40;73.10;;;;;;10399532;28;20221;-81
2022/06/14 23:04:54;;;;;;;3.73;3.43;;;20.30;73.40;;;;;;10404657;28;20206;-81
2022/06/14 23:09:58;;;;;;;3.90;3.60;;;20.20;74.80;;;;;;10403067;28;20230;-81
2022/06/14 23:15:00;;;;;;;4.13;3.80;;;20.10;74.80;;;;;;10405724;28;20221;-82
2022/06/14 23:20:02;;;;;;;5.57;3.83;;;20.10;75.80;;;;;;10406364;28;20226;-82
2022/06/14 23:25:07;;;;;;;4.57;4.23;;;20.00;75.30;;;;;;10407709;28;20197;-80
2022/06/14 23:30:10;;;;;;;4.40;4.00;;;20.00;75.80;;;;;;10414936;28;20237;-79
2022/06/14 23:35:12;;;;;;;3.63;3.33;;;19.80;75.50;;;;;;10403235;28;20289;-82
2022/06/14 23:40:16;;;;;;;4.33;3.53;;;19.80;76.10;;;;;;10411929;28;20296;-81
2022/06/14 23:45:19;;;;;;;5.63;3.83;;;19.70;77.20;;;;;;10407403;28;20240;-81
2022/06/14 23:50:21;;;;;;;4.40;3.30;;;19.60;76.30;;;;;;10407035;28;20229;-82
2022/06/14 23:55:24;;;;;;;5.87;3.63;;;19.50;76.10;;;;;;10402295;28;20285;-82
